sensor_id;sensor_type;location;lat;lon;timestamp;pressure;altitude;pressure_sealevel;temperature;humidity
18755;BME280;35061;47.664;9.166;2022-09-20T00:01:31;102093.89;;;11.80;69.19
18755;BME280;35061;47.664;9.166;2022-09-20T00:04:01;102082.71;;;11.73;69.42
18755;BME280;35061;47.664;9.166;2022-09-20T00:06:32;102088.23;;;11.67;69.63
18755;BME280;35061;47.664;9.166;2022-09-20T00:09:00;102079.63;;;11.67;70.03
18755;BME280;35061;47.664;9.166;2022-09-20T00:11:31;102088.40;;;11.64;70.03
18755;BME280;35061;47.664;9.166;2022-09-20T00:14:00;102087.26;;;11.61;70.34
18755;BME280;35061;47.664;9.166;2022-09-20T00:16:31;102082.77;;;11.60;70.39
18755;BME280;35061;47.664;9.166;2022-09-20T00:19:00;102089.02;;;11.58;70.74
18755;BME280;35061;47.664;9.166;2022-09-20T00:21:33;102095.07;;;11.61;70.93
18755;BME280;35061;47.664;9.166;2022-09-20T00:24:01;102086.93;;;11.59;70.75
18755;BME280;35061;47.664;9.166;2022-09-20T00:26:29;102095.34;;;11.53;70.56
18755;BME280;35061;47.664;9.166;2022-09-20T00:29:00;102094.09;;;11.54;70.91
18755;BME280;35061;47.664;9.166;2022-09-20T00:31:27;102093.30;;;11.54;70.93
18755;BME280;35061;47.664;9.166;2022-09-20T00:33:56;102087.68;;;11.50;70.76
18755;BME280;35061;47.664;9.166;2022-09-20T00:36:43;102089.55;;;11.44;70.77
18755;BME280;35061;47.664;9.166;2022-09-20T00:39:13;102084.45;;;11.39;71.00
18755;BME280;35061;47.664;9.166;2022-09-20T00:41:41;102085.36;;;11.36;70.94
18755;BME280;35061;47.664;9.166;2022-09-20T00:50:30;102071.49;;;11.34;71.54
18755;BME280;35061;47.664;9.166;2022-09-20T00:52:59;102068.13;;;11.26;71.16
18755;BME280;35061;47.664;9.166;2022-09-20T00:55:31;102067.96;;;11.30;71.74
18755;BME280;35061;47.664;9.166;2022-09-20T00:58:00;102066.36;;;11.29;71.72
18755;BME280;35061;47.664;9.166;2022-09-20T01:00:28;102070.02;;;11.29;71.52
18755;BME280;35061;47.664;9.166;2022-09-20T01:02:59;102065.58;;;11.28;71.92
18755;BME280;35061;47.664;9.166;2022-09-20T01:05:27;102066.36;;;11.29;72.10
18755;BME280;35061;47.664;9.166;2022-09-20T01:07:55;102059.16;;;11.24;71.92
18755;BME280;35061;47.664;9.166;2022-09-20T01:10:24;102064.43;;;11.26;72.24
18755;BME280;35061;47.664;9.166;2022-09-20T01:12:52;102063.29;;;11.23;72.25
18755;BME280;35061;47.664;9.166;2022-09-20T01:15:21;102065.84;;;11.21;72.26
18755;BME280;35061;47.664;9.166;2022-09-20T01:17:51;102065.05;;;11.21;72.34
18755;BME280;35061;47.664;9.166;2022-09-20T01:23:23;102067.11;;;11.20;72.54
18755;BME280;35061;47.664;9.166;2022-09-20T01:29:00;102066.72;;;11.09;72.76
18755;BME280;35061;47.664;9.166;2022-09-20T01:31:35;102062.83;;;11.02;72.72
18755;BME280;35061;47.664;9.166;2022-09-20T01:34:13;102050.11;;;11.03;72.85
18755;BME280;35061;47.664;9.166;2022-09-20T01:39:51;102054.59;;;11.05;73.08
18755;BME280;35061;47.664;9.166;2022-09-20T01:42:25;102043.70;;;10.99;72.77
18755;BME280;35061;47.664;9.166;2022-09-20T01:48:06;102043.17;;;10.92;73.44
18755;BME280;35061;47.664;9.166;2022-09-20T02:07:41;102045.83;;;10.64;74.69
18755;BME280;35061;47.664;9.166;2022-09-20T02:12:56;102043.57;;;10.58;75.31
18755;BME280;35061;47.664;9.166;2022-09-20T02:18:37;102051.80;;;10.56;75.45
18755;BME280;35061;47.664;9.166;2022-09-20T02:38:21;102062.37;;;10.46;76.23
18755;BME280;35061;47.664;9.166;2022-09-20T02:46:54;102057.47;;;10.34;75.99
18755;BME280;35061;47.664;9.166;2022-09-20T02:55:43;102059.13;;;10.09;77.72
18755;BME280;35061;47.664;9.166;2022-09-20T03:00:53;102060.51;;;10.04;77.37
18755;BME280;35061;47.664;9.166;2022-09-20T03:18:10;102075.98;;;9.94;77.86
18755;BME280;35061;47.664;9.166;2022-09-20T03:20:57;102074.57;;;9.86;77.77
18755;BME280;35061;47.664;9.166;2022-09-20T03:26:33;102086.96;;;9.83;78.59
18755;BME280;35061;47.664;9.166;2022-09-20T03:32:12;102085.00;;;9.80;78.41
18755;BME280;35061;47.664;9.166;2022-09-20T03:40:15;102083.27;;;9.69;78.19
18755;BME280;35061;47.664;9.166;2022-09-20T03:42:50;102085.78;;;9.67;78.21
18755;BME280;35061;47.664;9.166;2022-09-20T03:50:46;102080.42;;;9.82;78.62
18755;BME280;35061;47.664;9.166;2022-09-20T03:58:54;102076.53;;;9.89;79.13
18755;BME280;35061;47.664;9.166;2022-09-20T04:04:56;102079.05;;;10.00;78.84
18755;BME280;35061;47.664;9.166;2022-09-20T04:18:38;102077.77;;;9.88;78.35
18755;BME280;35061;47.664;9.166;2022-09-20T04:21:18;102072.28;;;9.81;78.63
18755;BME280;35061;47.664;9.166;2022-09-20T04:26:44;102079.27;;;9.67;78.67
18755;BME280;35061;47.664;9.166;2022-09-20T04:29:37;102079.38;;;9.63;78.69
18755;BME280;35061;47.664;9.166;2022-09-20T04:32:20;102089.09;;;9.66;79.30
18755;BME280;35061;47.664;9.166;2022-09-20T04:34:59;102081.44;;;9.62;78.90
18755;BME280;35061;47.664;9.166;2022-09-20T04:37:48;102085.98;;;9.60;78.76
18755;BME280;35061;47.664;9.166;2022-09-20T04:46:31;102085.78;;;9.67;78.93
18755;BME280;35061;47.664;9.166;2022-09-20T05:05:41;102108.18;;;9.56;78.42
18755;BME280;35061;47.664;9.166;2022-09-20T05:17:13;102117.11;;;9.58;78.39
18755;BME280;35061;47.664;9.166;2022-09-20T05:19:59;102112.99;;;9.59;78.10
18755;BME280;35061;47.664;9.166;2022-09-20T05:25:33;102118.02;;;9.55;77.76
18755;BME280;35061;47.664;9.166;2022-09-20T05:28:38;102119.62;;;9.56;78.26
18755;BME280;35061;47.664;9.166;2022-09-20T05:31:11;102116.33;;;9.57;78.34
18755;BME280;35061;47.664;9.166;2022-09-20T05:39:45;102126.92;;;9.44;77.62
18755;BME280;35061;47.664;9.166;2022-09-20T05:42:19;102130.26;;;9.42;77.70
18755;BME280;35061;47.664;9.166;2022-09-20T05:47:44;102124.05;;;9.44;78.01
18755;BME280;35061;47.664;9.166;2022-09-20T05:56:13;102124.17;;;9.40;77.66
18755;BME280;35061;47.664;9.166;2022-09-20T05:59:24;102132.38;;;9.38;77.64
18755;BME280;35061;47.664;9.166;2022-09-20T06:04:33;102134.12;;;9.35;77.84
18755;BME280;35061;47.664;9.166;2022-09-20T06:13:18;102126.01;;;9.34;78.08
18755;BME280;35061;47.664;9.166;2022-09-20T06:21:19;102134.67;;;9.30;78.34
18755;BME280;35061;47.664;9.166;2022-09-20T06:23:54;102128.49;;;9.32;79.09
18755;BME280;35061;47.664;9.166;2022-09-20T06:26:26;102131.27;;;9.35;78.75
18755;BME280;35061;47.664;9.166;2022-09-20T06:28:59;102136.50;;;9.37;78.87
18755;BME280;35061;47.664;9.166;2022-09-20T06:31:29;102135.26;;;9.38;79.25
18755;BME280;35061;47.664;9.166;2022-09-20T06:34:01;102142.13;;;9.41;79.15
18755;BME280;35061;47.664;9.166;2022-09-20T06:36:32;102141.21;;;9.44;79.15
18755;BME280;35061;47.664;9.166;2022-09-20T06:42:30;102143.76;;;9.55;80.69
18755;BME280;35061;47.664;9.166;2022-09-20T06:44:57;102149.74;;;9.60;79.97
18755;BME280;35061;47.664;9.166;2022-09-20T06:47:25;102154.42;;;9.67;80.11
18755;BME280;35061;47.664;9.166;2022-09-20T06:49:53;102149.88;;;9.70;80.36
18755;BME280;35061;47.664;9.166;2022-09-20T06:52:21;102152.63;;;9.73;80.19
18755;BME280;35061;47.664;9.166;2022-09-20T06:54:50;102156.52;;;9.80;80.51
18755;BME280;35061;47.664;9.166;2022-09-20T06:57:32;102156.61;;;9.76;81.12
18755;BME280;35061;47.664;9.166;2022-09-20T07:00:01;102158.34;;;9.73;81.38
18755;BME280;35061;47.664;9.166;2022-09-20T07:02:28;102160.54;;;9.82;80.70
18755;BME280;35061;47.664;9.166;2022-09-20T07:04:56;102162.14;;;9.83;80.54
18755;BME280;35061;47.664;9.166;2022-09-20T07:07:25;102157.07;;;9.87;80.36
18755;BME280;35061;47.664;9.166;2022-09-20T07:09:53;102165.57;;;9.91;80.15
18755;BME280;35061;47.664;9.166;2022-09-20T07:12:21;102158.38;;;9.99;80.06
18755;BME280;35061;47.664;9.166;2022-09-20T07:14:48;102160.77;;;10.01;80.27
18755;BME280;35061;47.664;9.166;2022-09-20T07:17:16;102163.16;;;10.02;80.16
18755;BME280;35061;47.664;9.166;2022-09-20T07:19:44;102159.30;;;10.09;80.15
18755;BME280;35061;47.664;9.166;2022-09-20T07:22:12;102155.41;;;10.03;80.52
18755;BME280;35061;47.664;9.166;2022-09-20T07:24:40;102159.95;;;10.00;80.85
18755;BME280;35061;47.664;9.166;2022-09-20T07:27:10;102157.20;;;9.97;82.21
18755;BME280;35061;47.664;9.166;2022-09-20T07:29:38;102162.37;;;10.02;81.33
18755;BME280;35061;47.664;9.166;2022-09-20T07:32:07;102162.73;;;10.04;81.67
18755;BME280;35061;47.664;9.166;2022-09-20T07:34:35;102169.50;;;10.10;81.39
18755;BME280;35061;47.664;9.166;2022-09-20T07:37:02;102163.19;;;10.15;81.28
18755;BME280;35061;47.664;9.166;2022-09-20T07:39:30;102165.84;;;10.23;81.17
18755;BME280;35061;47.664;9.166;2022-09-20T07:41:58;102172.93;;;10.31;81.66
18755;BME280;35061;47.664;9.166;2022-09-20T07:44:25;102175.19;;;10.36;81.08
18755;BME280;35061;47.664;9.166;2022-09-20T07:46:56;102171.88;;;10.38;81.17
18755;BME280;35061;47.664;9.166;2022-09-20T07:49:28;102181.98;;;10.42;81.26
18755;BME280;35061;47.664;9.166;2022-09-20T07:51:58;102188.73;;;10.49;81.41
18755;BME280;35061;47.664;9.166;2022-09-20T07:54:26;102184.05;;;10.55;81.25
18755;BME280;35061;47.664;9.166;2022-09-20T07:56:54;102186.66;;;10.62;80.76
18755;BME280;35061;47.664;9.166;2022-09-20T07:59:22;102187.77;;;10.65;80.12
18755;BME280;35061;47.664;9.166;2022-09-20T08:01:50;102189.28;;;10.69;79.46
18755;BME280;35061;47.664;9.166;2022-09-20T08:04:18;102190.30;;;10.75;78.96
18755;BME280;35061;47.664;9.166;2022-09-20T08:06:46;102192.91;;;10.83;79.03
18755;BME280;35061;47.664;9.166;2022-09-20T08:09:13;102195.85;;;10.92;78.80
18755;BME280;35061;47.664;9.166;2022-09-20T08:11:42;102197.23;;;11.00;77.88
18755;BME280;35061;47.664;9.166;2022-09-20T08:14:14;102190.42;;;11.07;77.75
18755;BME280;35061;47.664;9.166;2022-09-20T08:16:44;102192.13;;;11.17;77.47
18755;BME280;35061;47.664;9.166;2022-09-20T08:19:21;102202.52;;;11.24;75.39
18755;BME280;35061;47.664;9.166;2022-09-20T08:21:50;102208.02;;;11.31;74.85
18755;BME280;35061;47.664;9.166;2022-09-20T08:24:20;102199.48;;;11.41;75.30
18755;BME280;35061;47.664;9.166;2022-09-20T08:26:48;102202.30;;;11.54;75.27
18755;BME280;35061;47.664;9.166;2022-09-20T08:29:16;102202.13;;;11.57;73.37
18755;BME280;35061;47.664;9.166;2022-09-20T08:31:44;102200.30;;;11.64;72.52
18755;BME280;35061;47.664;9.166;2022-09-20T08:34:13;102204.29;;;11.66;73.30
18755;BME280;35061;47.664;9.166;2022-09-20T08:36:45;102214.23;;;11.75;73.08
18755;BME280;35061;47.664;9.166;2022-09-20T08:39:13;102206.48;;;11.84;72.88
18755;BME280;35061;47.664;9.166;2022-09-20T08:44:50;102211.09;;;12.04;72.08
18755;BME280;35061;47.664;9.166;2022-09-20T08:47:38;102206.68;;;12.12;72.10
18755;BME280;35061;47.664;9.166;2022-09-20T08:50:12;102205.44;;;12.23;71.08
18755;BME280;35061;47.664;9.166;2022-09-20T08:52:45;102211.38;;;12.28;71.08
18755;BME280;35061;47.664;9.166;2022-09-20T08:55:26;102202.46;;;12.36;70.69
18755;BME280;35061;47.664;9.166;2022-09-20T08:58:02;102205.20;;;12.49;70.58
18755;BME280;35061;47.664;9.166;2022-09-20T09:00:35;102210.53;;;12.60;70.67
18755;BME280;35061;47.664;9.166;2022-09-20T09:03:06;102201.45;;;12.70;70.39
18755;BME280;35061;47.664;9.166;2022-09-20T09:05:43;102201.31;;;12.74;69.23
18755;BME280;35061;47.664;9.166;2022-09-20T09:08:25;102207.73;;;12.88;68.38
18755;BME280;35061;47.664;9.166;2022-09-20T09:10:56;102201.67;;;12.95;68.68
18755;BME280;35061;47.664;9.166;2022-09-20T09:16:22;102187.45;;;13.01;65.78
18755;BME280;35061;47.664;9.166;2022-09-20T09:22:01;102188.56;;;13.22;65.38
18755;BME280;35061;47.664;9.166;2022-09-20T09:24:29;102184.24;;;13.26;65.40
18755;BME280;35061;47.664;9.166;2022-09-20T09:27:13;102184.90;;;13.31;65.43
18755;BME280;35061;47.664;9.166;2022-09-20T09:29:52;102187.77;;;13.40;65.32
18755;BME280;35061;47.664;9.166;2022-09-20T09:32:24;102180.42;;;13.48;64.67
18755;BME280;35061;47.664;9.166;2022-09-20T09:34:55;102182.51;;;13.57;63.70
18755;BME280;35061;47.664;9.166;2022-09-20T09:37:27;102181.98;;;13.68;63.67
18755;BME280;35061;47.664;9.166;2022-09-20T09:40:25;102183.27;;;13.76;62.91
18755;BME280;35061;47.664;9.166;2022-09-20T09:42:58;102177.84;;;13.78;60.27
18755;BME280;35061;47.664;9.166;2022-09-20T09:45:32;102181.70;;;13.75;61.92
18755;BME280;35061;47.664;9.166;2022-09-20T09:48:25;102178.00;;;13.75;61.88
18755;BME280;35061;47.664;9.166;2022-09-20T09:51:09;102173.35;;;13.68;60.79
18755;BME280;35061;47.664;9.166;2022-09-20T09:53:38;102171.30;;;13.68;61.28
18755;BME280;35061;47.664;9.166;2022-09-20T10:01:28;102179.77;;;13.72;61.50
18755;BME280;35061;47.664;9.166;2022-09-20T10:07:00;102172.08;;;13.69;59.45
18755;BME280;35061;47.664;9.166;2022-09-20T10:12:58;102169.20;;;13.69;60.11
18755;BME280;35061;47.664;9.166;2022-09-20T10:21:37;102163.74;;;13.80;59.60
18755;BME280;35061;47.664;9.166;2022-09-20T10:24:19;102161.32;;;13.98;59.20
18755;BME280;35061;47.664;9.166;2022-09-20T10:30:18;102158.80;;;14.24;57.64
18755;BME280;35061;47.664;9.166;2022-09-20T10:33:08;102158.09;;;14.38;58.50
18755;BME280;35061;47.664;9.166;2022-09-20T10:41:15;102152.23;;;14.57;57.34
18755;BME280;35061;47.664;9.166;2022-09-20T10:47:09;102139.70;;;14.60;56.43
18755;BME280;35061;47.664;9.166;2022-09-20T10:52:42;102141.38;;;14.76;56.59
18755;BME280;35061;47.664;9.166;2022-09-20T10:55:36;102144.52;;;14.88;56.41
18755;BME280;35061;47.664;9.166;2022-09-20T11:06:18;102136.50;;;15.07;55.49
18755;BME280;35061;47.664;9.166;2022-09-20T11:08:51;102134.34;;;15.17;55.92
18755;BME280;35061;47.664;9.166;2022-09-20T11:11:33;102137.94;;;15.27;56.26
18755;BME280;35061;47.664;9.166;2022-09-20T11:14:06;102141.11;;;15.29;56.00
18755;BME280;35061;47.664;9.166;2022-09-20T11:16:50;102140.13;;;15.32;55.89
18755;BME280;35061;47.664;9.166;2022-09-20T11:24:35;102138.76;;;15.42;56.73
18755;BME280;35061;47.664;9.166;2022-09-20T11:27:11;102141.93;;;15.44;56.39
18755;BME280;35061;47.664;9.166;2022-09-20T11:29:46;102145.10;;;15.46;56.37
18755;BME280;35061;47.664;9.166;2022-09-20T11:32:22;102148.93;;;15.53;56.39
18755;BME280;35061;47.664;9.166;2022-09-20T11:34:58;102147.42;;;15.57;56.08
18755;BME280;35061;47.664;9.166;2022-09-20T11:37:41;102143.14;;;15.53;54.92
18755;BME280;35061;47.664;9.166;2022-09-20T11:40:21;102145.04;;;15.56;55.19
18755;BME280;35061;47.664;9.166;2022-09-20T11:42:51;102143.73;;;15.57;54.92
18755;BME280;35061;47.664;9.166;2022-09-20T11:45:21;102148.21;;;15.58;55.08
18755;BME280;35061;47.664;9.166;2022-09-20T11:47:59;102149.91;;;15.65;54.88
18755;BME280;35061;47.664;9.166;2022-09-20T11:51:06;102144.12;;;15.65;54.74
18755;BME280;35061;47.664;9.166;2022-09-20T11:54:11;102147.81;;;15.65;54.52
18755;BME280;35061;47.664;9.166;2022-09-20T11:56:51;102138.86;;;15.63;54.31
18755;BME280;35061;47.664;9.166;2022-09-20T12:00:03;102138.86;;;15.63;53.91
18755;BME280;35061;47.664;9.166;2022-09-20T12:02:32;102131.17;;;15.60;53.57
18755;BME280;35061;47.664;9.166;2022-09-20T12:05:05;102139.15;;;15.65;53.36
18755;BME280;35061;47.664;9.166;2022-09-20T12:07:37;102136.57;;;15.67;53.69
18755;BME280;35061;47.664;9.166;2022-09-20T12:12:48;102122.31;;;15.63;52.99
18755;BME280;35061;47.664;9.166;2022-09-20T12:15:39;102127.31;;;15.63;53.26
18755;BME280;35061;47.664;9.166;2022-09-20T12:21:14;102129.70;;;15.65;53.18
18755;BME280;35061;47.664;9.166;2022-09-20T12:28:56;102125.13;;;15.58;52.59
18755;BME280;35061;47.664;9.166;2022-09-20T12:33:56;102120.15;;;15.58;52.05
18755;BME280;35061;47.664;9.166;2022-09-20T12:36:31;102125.32;;;15.54;51.18
18755;BME280;35061;47.664;9.166;2022-09-20T12:39:04;102117.18;;;15.53;51.76
18755;BME280;35061;47.664;9.166;2022-09-20T12:41:55;102120.55;;;15.51;52.31
18755;BME280;35061;47.664;9.166;2022-09-20T12:52:34;102108.09;;;15.60;52.87
18755;BME280;35061;47.664;9.166;2022-09-20T13:00:45;102109.46;;;15.65;52.03
18755;BME280;35061;47.664;9.166;2022-09-20T13:05:43;102107.79;;;15.73;51.96
18755;BME280;35061;47.664;9.166;2022-09-20T13:08:18;102102.82;;;15.73;51.74
18755;BME280;35061;47.664;9.166;2022-09-20T13:10:52;102102.82;;;15.73;51.74
18755;BME280;35061;47.664;9.166;2022-09-20T13:13:29;102100.99;;;15.76;51.76
18755;BME280;35061;47.664;9.166;2022-09-20T13:15:59;102106.29;;;15.77;51.68
18755;BME280;35061;47.664;9.166;2022-09-20T13:18:28;102099.81;;;15.83;51.57
18755;BME280;35061;47.664;9.166;2022-09-20T13:20:56;102098.27;;;15.87;51.66
18755;BME280;35061;47.664;9.166;2022-09-20T13:23:43;102101.52;;;15.89;51.22
18755;BME280;35061;47.664;9.166;2022-09-20T13:26:13;102080.78;;;15.91;50.58
18755;BME280;35061;47.664;9.166;2022-09-20T13:28:47;102094.55;;;15.96;51.21
18755;BME280;35061;47.664;9.166;2022-09-20T13:33:47;102098.02;;;16.00;50.96
18755;BME280;35061;47.664;9.166;2022-09-20T13:36:26;102094.84;;;15.98;50.35
18755;BME280;35061;47.664;9.166;2022-09-20T13:38:55;102090.36;;;15.97;50.06
18755;BME280;35061;47.664;9.166;2022-09-20T13:41:26;102083.76;;;15.97;49.95
18755;BME280;35061;47.664;9.166;2022-09-20T13:43:55;102091.64;;;15.96;49.49
18755;BME280;35061;47.664;9.166;2022-09-20T13:46:32;102089.25;;;15.95;49.54
18755;BME280;35061;47.664;9.166;2022-09-20T13:51:37;102077.22;;;15.96;48.83
18755;BME280;35061;47.664;9.166;2022-09-20T13:54:28;102081.70;;;15.97;49.51
18755;BME280;35061;47.664;9.166;2022-09-20T13:57:01;102097.13;;;15.94;48.15
18755;BME280;35061;47.664;9.166;2022-09-20T13:59:38;102081.40;;;15.95;48.51
18755;BME280;35061;47.664;9.166;2022-09-20T14:04:58;102084.28;;;15.95;47.37
18755;BME280;35061;47.664;9.166;2022-09-20T14:07:28;102081.89;;;15.94;48.59
18755;BME280;35061;47.664;9.166;2022-09-20T14:09:56;102081.40;;;15.95;48.65
18755;BME280;35061;47.664;9.166;2022-09-20T14:12:25;102088.17;;;15.92;48.63
18755;BME280;35061;47.664;9.166;2022-09-20T14:14:54;102083.98;;;15.93;48.74
18755;BME280;35061;47.664;9.166;2022-09-20T14:17:22;102079.21;;;15.90;48.73
18755;BME280;35061;47.664;9.166;2022-09-20T14:19:52;102089.77;;;15.93;48.93
18755;BME280;35061;47.664;9.166;2022-09-20T14:22:27;102071.04;;;15.88;48.75
18755;BME280;35061;47.664;9.166;2022-09-20T14:25:20;102085.95;;;15.87;48.61
18755;BME280;35061;47.664;9.166;2022-09-20T14:27:47;102090.76;;;15.90;49.33
18755;BME280;35061;47.664;9.166;2022-09-20T14:30:32;102082.09;;;15.90;49.19
18755;BME280;35061;47.664;9.166;2022-09-20T14:33:04;102079.21;;;15.90;49.17
18755;BME280;35061;47.664;9.166;2022-09-20T14:35:33;102075.02;;;15.91;48.72
18755;BME280;35061;47.664;9.166;2022-09-20T14:38:06;102078.59;;;15.86;48.33
18755;BME280;35061;47.664;9.166;2022-09-20T14:40:43;102074.11;;;15.85;47.84
18755;BME280;35061;47.664;9.166;2022-09-20T14:45:54;102083.27;;;15.83;48.06
18755;BME280;35061;47.664;9.166;2022-09-20T14:51:23;102082.77;;;15.85;49.01
18755;BME280;35061;47.664;9.166;2022-09-20T14:56:36;102092.65;;;15.78;48.55
18755;BME280;35061;47.664;9.166;2022-09-20T15:01:38;102088.37;;;15.73;49.23
18755;BME280;35061;47.664;9.166;2022-09-20T15:04:09;102085.16;;;15.71;49.29
18755;BME280;35061;47.664;9.166;2022-09-20T15:06:44;102093.05;;;15.71;49.44
18755;BME280;35061;47.664;9.166;2022-09-20T15:09:12;102096.45;;;15.69;49.55
18755;BME280;35061;47.664;9.166;2022-09-20T15:11:40;102094.55;;;15.66;49.52
18755;BME280;35061;47.664;9.166;2022-09-20T15:14:07;102079.54;;;15.62;49.47
18755;BME280;35061;47.664;9.166;2022-09-20T15:16:35;102093.96;;;15.62;49.55
18755;BME280;35061;47.664;9.166;2022-09-20T15:19:03;102098.63;;;15.59;49.64
18755;BME280;35061;47.664;9.166;2022-09-20T15:21:32;102102.82;;;15.58;49.80
18755;BME280;35061;47.664;9.166;2022-09-20T15:24:00;102096.77;;;15.56;50.01
18755;BME280;35061;47.664;9.166;2022-09-20T15:26:28;102106.68;;;15.55;49.96
18755;BME280;35061;47.664;9.166;2022-09-20T15:28:57;102096.64;;;15.51;49.96
18755;BME280;35061;47.664;9.166;2022-09-20T15:31:26;102104.03;;;15.52;50.23
18755;BME280;35061;47.664;9.166;2022-09-20T15:33:55;102103.70;;;15.49;50.54
18755;BME280;35061;47.664;9.166;2022-09-20T15:36:22;102100.73;;;15.44;50.54
18755;BME280;35061;47.664;9.166;2022-09-20T15:38:52;102099.13;;;15.43;50.51
18755;BME280;35061;47.664;9.166;2022-09-20T15:41:20;102107.01;;;15.42;50.30
18755;BME280;35061;47.664;9.166;2022-09-20T15:43:47;102103.31;;;15.42;50.37
18755;BME280;35061;47.664;9.166;2022-09-20T15:46:21;102100.14;;;15.40;50.32
18755;BME280;35061;47.664;9.166;2022-09-20T15:48:49;102102.72;;;15.38;50.19
18755;BME280;35061;47.664;9.166;2022-09-20T15:51:16;102099.55;;;15.35;50.03
18755;BME280;35061;47.664;9.166;2022-09-20T15:53:46;102107.59;;;15.31;49.68
18755;BME280;35061;47.664;9.166;2022-09-20T15:56:20;102095.46;;;15.27;49.42
18755;BME280;35061;47.664;9.166;2022-09-20T15:58:50;102107.46;;;15.26;48.88
18755;BME280;35061;47.664;9.166;2022-09-20T16:01:18;102101.12;;;15.21;49.10
18755;BME280;35061;47.664;9.166;2022-09-20T16:03:46;102108.18;;;15.20;49.09
18755;BME280;35061;47.664;9.166;2022-09-20T16:06:15;102100.50;;;15.17;49.11
18755;BME280;35061;47.664;9.166;2022-09-20T16:08:43;102105.21;;;15.15;48.89
18755;BME280;35061;47.664;9.166;2022-09-20T16:11:15;102106.98;;;15.12;48.51
18755;BME280;35061;47.664;9.166;2022-09-20T16:13:52;102107.76;;;15.13;48.32
18755;BME280;35061;47.664;9.166;2022-09-20T16:16:20;102106.48;;;15.14;48.09
18755;BME280;35061;47.664;9.166;2022-09-20T16:18:48;102105.50;;;15.17;48.15
18755;BME280;35061;47.664;9.166;2022-09-20T16:21:37;102107.86;;;15.18;48.06
18755;BME280;35061;47.664;9.166;2022-09-20T16:24:06;102110.73;;;15.18;48.16
18755;BME280;35061;47.664;9.166;2022-09-20T16:26:35;102115.73;;;15.18;48.10
18755;BME280;35061;47.664;9.166;2022-09-20T16:29:03;102114.63;;;15.15;47.98
18755;BME280;35061;47.664;9.166;2022-09-20T16:31:40;102110.63;;;15.13;47.99
18755;BME280;35061;47.664;9.166;2022-09-20T16:34:20;102115.02;;;15.08;47.94
18755;BME280;35061;47.664;9.166;2022-09-20T16:36:49;102119.40;;;15.03;47.22
18755;BME280;35061;47.664;9.166;2022-09-20T16:39:19;102127.45;;;14.99;47.61
18755;BME280;35061;47.664;9.166;2022-09-20T16:41:47;102121.55;;;14.93;47.44
18755;BME280;35061;47.664;9.166;2022-09-20T16:44:15;102123.32;;;14.91;47.47
18755;BME280;35061;47.664;9.166;2022-09-20T16:46:43;102117.77;;;14.87;47.96
18755;BME280;35061;47.664;9.166;2022-09-20T16:49:11;102112.47;;;14.86;48.14
18755;BME280;35061;47.664;9.166;2022-09-20T16:51:41;102119.73;;;14.81;48.58
18755;BME280;35061;47.664;9.166;2022-09-20T16:54:11;102123.62;;;14.78;48.79
18755;BME280;35061;47.664;9.166;2022-09-20T16:56:44;102125.84;;;14.74;49.23
18755;BME280;35061;47.664;9.166;2022-09-20T16:59:14;102128.10;;;14.70;49.75
18755;BME280;35061;47.664;9.166;2022-09-20T17:01:43;102128.78;;;14.64;49.55
18755;BME280;35061;47.664;9.166;2022-09-20T17:04:11;102123.39;;;14.57;48.94
18755;BME280;35061;47.664;9.166;2022-09-20T17:06:40;102128.52;;;14.53;48.70
18755;BME280;35061;47.664;9.166;2022-09-20T17:09:10;102135.29;;;14.50;48.81
18755;BME280;35061;47.664;9.166;2022-09-20T17:11:44;102134.67;;;14.46;48.73
18755;BME280;35061;47.664;9.166;2022-09-20T17:14:13;102141.41;;;14.43;48.66
18755;BME280;35061;47.664;9.166;2022-09-20T17:16:42;102146.87;;;14.41;48.95
18755;BME280;35061;47.664;9.166;2022-09-20T17:19:11;102149.91;;;14.37;49.16
18755;BME280;35061;47.664;9.166;2022-09-20T17:21:41;102156.68;;;14.34;49.43
18755;BME280;35061;47.664;9.166;2022-09-20T17:24:10;102150.30;;;14.30;49.74
18755;BME280;35061;47.664;9.166;2022-09-20T17:26:40;102159.42;;;14.28;50.18
18755;BME280;35061;47.664;9.166;2022-09-20T17:29:09;102154.12;;;14.27;50.71
18755;BME280;35061;47.664;9.166;2022-09-20T17:31:40;102159.59;;;14.24;50.89
18755;BME280;35061;47.664;9.166;2022-09-20T17:34:10;102158.48;;;14.22;50.81
18755;BME280;35061;47.664;9.166;2022-09-20T17:36:40;102167.30;;;14.18;50.69
18755;BME280;35061;47.664;9.166;2022-09-20T17:39:09;102167.80;;;14.17;50.78
18755;BME280;35061;47.664;9.166;2022-09-20T17:41:40;102165.90;;;14.14;50.67
18755;BME280;35061;47.664;9.166;2022-09-20T17:44:08;102170.05;;;14.13;50.68
18755;BME280;35061;47.664;9.166;2022-09-20T17:46:38;102170.54;;;14.11;50.83
18755;BME280;35061;47.664;9.166;2022-09-20T17:49:08;102156.29;;;14.07;51.10
18755;BME280;35061;47.664;9.166;2022-09-20T17:51:38;102158.05;;;14.05;51.16
18755;BME280;35061;47.664;9.166;2022-09-20T17:54:07;102164.00;;;14.01;51.15
18755;BME280;35061;47.664;9.166;2022-09-20T17:56:34;102165.80;;;13.99;51.26
18755;BME280;35061;47.664;9.166;2022-09-20T17:59:04;102169.95;;;13.98;51.32
18755;BME280;35061;47.664;9.166;2022-09-20T18:01:33;102170.90;;;13.94;51.50
18755;BME280;35061;47.664;9.166;2022-09-20T18:04:03;102181.63;;;13.94;51.69
18755;BME280;35061;47.664;9.166;2022-09-20T18:09:10;102181.79;;;13.90;51.88
18755;BME280;35061;47.664;9.166;2022-09-20T18:11:46;102175.74;;;13.88;52.11
18755;BME280;35061;47.664;9.166;2022-09-20T18:14:18;102191.08;;;13.85;52.61
18755;BME280;35061;47.664;9.166;2022-09-20T18:16:46;102188.69;;;13.84;52.76
18755;BME280;35061;47.664;9.166;2022-09-20T18:19:14;102188.85;;;13.80;52.90
18755;BME280;35061;47.664;9.166;2022-09-20T18:21:43;102192.23;;;13.78;53.24
18755;BME280;35061;47.664;9.166;2022-09-20T18:24:10;102205.83;;;13.78;53.49